createdAt,value
2019-06-15T00:00:36.766Z,6.20
2019-06-15T00:03:08.282Z,6.20
2019-06-15T00:05:38.992Z,6.17
2019-06-15T00:08:12.432Z,6.27
2019-06-15T00:10:44.548Z,7.10
2019-06-15T00:13:19.614Z,7.67
2019-06-15T00:15:51.435Z,6.93
2019-06-15T00:18:28.245Z,7.10
2019-06-15T00:21:01.601Z,7.43
2019-06-15T00:23:40.921Z,7.70
2019-06-15T00:26:14.710Z,7.17
2019-06-15T00:28:45.448Z,7.00
2019-06-15T00:31:16.652Z,7.50
2019-06-15T00:33:46.954Z,7.30
2019-06-15T00:36:19.034Z,6.97
2019-06-15T00:38:49.799Z,7.33
2019-06-15T00:41:20.960Z,7.60
2019-06-15T00:43:55.211Z,7.90
2019-06-15T00:46:26.089Z,7.50
2019-06-15T00:48:59.374Z,7.23
2019-06-15T00:51:34.923Z,6.93
2019-06-15T00:54:05.516Z,7.37
2019-06-15T00:56:36.963Z,7.67
2019-06-15T00:59:11.092Z,7.23
2019-06-15T01:01:41.340Z,7.63
2019-06-15T01:04:16.819Z,8.03
2019-06-15T01:06:56.614Z,8.00
2019-06-15T01:09:27.160Z,7.77
2019-06-15T01:11:57.608Z,8.57
2019-06-15T01:14:28.060Z,7.80
2019-06-15T01:16:58.682Z,8.90
2019-06-15T01:19:37.142Z,8.07
2019-06-15T01:22:07.869Z,7.43
2019-06-15T01:24:37.578Z,8.00
2019-06-15T01:27:10.628Z,8.50
2019-06-15T01:29:40.360Z,7.90
2019-06-15T01:32:10.020Z,8.77
2019-06-15T01:34:39.685Z,9.10
2019-06-15T01:37:09.438Z,9.30
2019-06-15T01:39:39.312Z,9.40
2019-06-15T01:42:09.039Z,10.50
2019-06-15T01:44:38.812Z,9.93
2019-06-15T01:47:08.572Z,9.87
2019-06-15T01:49:38.332Z,9.83
2019-06-15T01:52:08.117Z,9.40
2019-06-15T01:54:37.866Z,10.10
2019-06-15T01:57:08.621Z,9.63
2019-06-15T01:59:38.328Z,10.37
2019-06-15T02:02:08.124Z,9.77
2019-06-15T02:04:37.903Z,9.83
2019-06-15T02:07:07.625Z,10.93
2019-06-15T02:09:38.770Z,10.77
2019-06-15T02:12:08.585Z,10.83
2019-06-15T02:14:38.281Z,10.83
2019-06-15T02:17:07.960Z,10.33
2019-06-15T02:19:37.617Z,10.77
2019-06-15T02:22:07.322Z,10.70
2019-06-15T02:24:36.992Z,10.93
2019-06-15T02:27:06.778Z,10.33
2019-06-15T02:29:36.447Z,9.43
2019-06-15T02:32:06.312Z,10.27
2019-06-15T02:34:35.971Z,9.87
2019-06-15T02:37:05.773Z,10.43
2019-06-15T02:39:35.533Z,10.53
2019-06-15T02:42:05.507Z,11.07
2019-06-15T02:44:35.315Z,10.07
2019-06-15T02:47:05.095Z,10.50
2019-06-15T02:49:34.795Z,10.20
2019-06-15T02:52:04.648Z,10.17
2019-06-15T02:54:34.495Z,10.17
2019-06-15T02:57:04.138Z,10.87
2019-06-15T02:59:33.931Z,11.37
2019-06-15T03:02:03.705Z,9.77
2019-06-15T03:04:33.439Z,10.83
2019-06-15T03:07:03.102Z,10.53
2019-06-15T03:09:32.813Z,10.83
2019-06-15T03:12:02.542Z,11.13
2019-06-15T03:14:32.156Z,11.27
2019-06-15T03:17:01.799Z,10.60
2019-06-15T03:19:31.405Z,11.10
2019-06-15T03:22:01.053Z,11.80
2019-06-15T03:24:30.684Z,10.50
2019-06-15T03:27:00.469Z,11.43
2019-06-15T03:29:30.213Z,11.13
2019-06-15T03:31:59.909Z,10.50
2019-06-15T03:34:29.669Z,10.63
2019-06-15T03:36:59.419Z,11.90
2019-06-15T03:39:29.199Z,10.57
2019-06-15T03:41:59.249Z,11.43
2019-06-15T03:44:28.948Z,11.50
2019-06-15T03:46:58.628Z,10.77
2019-06-15T03:49:28.327Z,10.93
2019-06-15T03:51:58.033Z,10.37
2019-06-15T03:54:27.811Z,10.00
2019-06-15T03:56:57.586Z,11.03
2019-06-15T03:59:27.274Z,10.47
2019-06-15T04:01:56.940Z,10.57
2019-06-15T04:04:26.634Z,9.60
2019-06-15T04:06:56.345Z,10.50
2019-06-15T04:09:26.256Z,10.93
2019-06-15T04:11:55.924Z,11.17
2019-06-15T04:14:25.575Z,11.07
2019-06-15T04:16:55.409Z,10.87
2019-06-15T04:19:25.072Z,11.37
2019-06-15T04:21:56.172Z,9.90
2019-06-15T04:24:25.831Z,10.83
2019-06-15T04:26:55.506Z,10.90
2019-06-15T04:29:25.328Z,10.30
2019-06-15T04:31:54.964Z,10.60
2019-06-15T04:34:24.602Z,11.63
2019-06-15T04:36:54.740Z,11.20
2019-06-15T04:39:24.387Z,12.90
2019-06-15T04:41:54.008Z,13.70
2019-06-15T04:44:23.604Z,11.97
2019-06-15T04:46:53.332Z,13.10
2019-06-15T04:49:23.049Z,13.40
2019-06-15T04:51:52.708Z,11.55
2019-06-15T04:54:22.545Z,10.70
2019-06-15T04:56:52.344Z,11.63
2019-06-15T04:59:22.131Z,12.10
2019-06-15T05:01:51.907Z,13.50
2019-06-15T05:04:21.723Z,15.17
2019-06-15T05:06:51.490Z,13.75
2019-06-15T05:09:21.450Z,14.68
2019-06-15T05:11:51.493Z,16.05
2019-06-15T05:14:21.548Z,14.53
2019-06-15T05:16:53.397Z,17.12
2019-06-15T05:19:23.280Z,16.00
2019-06-15T05:21:53.349Z,15.55
2019-06-15T05:24:23.308Z,16.60
2019-06-15T05:27:05.596Z,15.80
2019-06-15T05:29:24.885Z,15.23
2019-06-15T05:31:54.840Z,14.93
2019-06-15T05:34:24.676Z,14.78
2019-06-15T05:36:54.336Z,14.93
2019-06-15T05:39:23.952Z,15.32
2019-06-15T05:41:53.599Z,14.60
2019-06-15T05:44:23.308Z,15.48
2019-06-15T05:46:53.084Z,14.95
2019-06-15T05:49:23.455Z,14.60
2019-06-15T05:51:53.487Z,15.50
2019-06-15T05:54:23.220Z,13.65
2019-06-15T05:56:52.849Z,13.25
2019-06-15T05:59:22.448Z,12.18
2019-06-15T06:01:52.155Z,11.97
2019-06-15T06:04:21.938Z,11.38
2019-06-15T06:06:51.662Z,11.00
2019-06-15T06:09:21.414Z,11.08
2019-06-15T06:11:51.063Z,10.30
2019-06-15T06:14:20.893Z,11.10
2019-06-15T06:16:50.553Z,11.20
2019-06-15T06:19:20.350Z,11.03
2019-06-15T06:21:50.142Z,10.48
2019-06-15T06:24:19.841Z,11.20
2019-06-15T06:26:49.524Z,11.40
2019-06-15T06:29:19.414Z,11.80
2019-06-15T06:31:49.074Z,11.38
2019-06-15T06:34:18.663Z,11.70
2019-06-15T06:36:48.350Z,13.13
2019-06-15T06:39:18.123Z,12.55
2019-06-15T06:41:47.766Z,13.22
2019-06-15T06:44:17.518Z,18.87
2019-06-15T06:46:47.377Z,22.27
2019-06-15T06:49:17.172Z,23.95
2019-06-15T06:51:48.026Z,25.10
2019-06-15T06:54:17.860Z,24.43
2019-06-15T06:56:48.518Z,26.70
2019-06-15T06:59:18.568Z,27.25
2019-06-15T07:01:48.622Z,31.07
2019-06-15T07:04:18.272Z,32.25
2019-06-15T07:06:47.923Z,34.55
2019-06-15T07:09:17.773Z,38.23
2019-06-15T07:11:47.582Z,37.40
2019-06-15T07:14:17.682Z,37.70
2019-06-15T07:16:47.436Z,39.05
2019-06-15T07:19:17.211Z,38.93
2019-06-15T07:21:46.885Z,43.73
2019-06-15T07:24:16.489Z,34.67
2019-06-15T07:26:46.211Z,35.97
2019-06-15T07:29:15.964Z,31.90
2019-06-15T07:31:59.973Z,34.20
2019-06-15T07:34:29.975Z,30.83
2019-06-15T07:37:01.602Z,26.37
2019-06-15T07:39:31.010Z,26.97
2019-06-15T07:42:00.733Z,26.50
2019-06-15T07:44:30.406Z,27.97
2019-06-15T07:47:00.112Z,27.77
2019-06-15T07:49:29.736Z,29.20
2019-06-15T07:51:59.625Z,28.90
2019-06-15T07:54:29.299Z,28.63
2019-06-15T07:56:59.033Z,27.87
2019-06-15T07:59:28.744Z,27.87
2019-06-15T08:01:58.525Z,28.53
2019-06-15T08:04:28.281Z,27.70
2019-06-15T08:06:57.942Z,24.43
2019-06-15T08:09:27.727Z,23.70
2019-06-15T08:11:57.498Z,24.53
2019-06-15T08:14:27.382Z,23.20
2019-06-15T08:16:57.169Z,23.30
2019-06-15T08:19:26.970Z,25.90
2019-06-15T08:21:56.699Z,27.17
2019-06-15T08:24:26.516Z,25.57
2019-06-15T08:26:57.190Z,29.30
2019-06-15T08:29:26.976Z,29.37
2019-06-15T08:31:56.771Z,27.80
2019-06-15T08:34:26.455Z,27.42
2019-06-15T08:36:56.112Z,27.90
2019-06-15T08:39:26.082Z,26.30
2019-06-15T08:41:57.021Z,24.87
2019-06-15T08:44:26.741Z,23.25
2019-06-15T08:46:59.218Z,23.00
2019-06-15T08:49:27.883Z,22.25
2019-06-15T08:51:57.844Z,18.77
2019-06-15T08:54:27.556Z,17.23
2019-06-15T08:56:57.367Z,13.28
2019-06-15T08:59:27.031Z,11.95
2019-06-15T09:01:56.827Z,9.25
2019-06-15T09:04:26.463Z,8.28
2019-06-15T09:06:56.154Z,8.03
2019-06-15T09:09:26.866Z,6.62
2019-06-15T09:11:56.559Z,6.30
2019-06-15T09:14:26.242Z,6.62
2019-06-15T09:16:55.984Z,5.75
2019-06-15T09:19:25.742Z,5.20
2019-06-15T09:21:55.425Z,5.12
2019-06-15T09:24:25.242Z,5.72
2019-06-15T09:26:54.930Z,4.30
2019-06-15T09:29:24.633Z,4.28
2019-06-15T09:31:54.393Z,4.33
2019-06-15T09:34:24.241Z,3.92
2019-06-15T09:36:55.126Z,4.37
2019-06-15T09:39:24.965Z,3.45
2019-06-15T09:41:54.866Z,3.55
2019-06-15T09:44:24.493Z,3.52
2019-06-15T09:46:54.928Z,3.95
2019-06-15T09:49:24.837Z,3.40
2019-06-15T09:51:54.538Z,3.83
2019-06-15T09:54:24.186Z,3.12
2019-06-15T09:56:54.034Z,2.80
2019-06-15T09:59:26.307Z,2.47
2019-06-15T10:01:55.904Z,2.83
2019-06-15T10:04:27.272Z,2.60
2019-06-15T10:06:58.109Z,2.67
2019-06-15T10:09:27.798Z,2.10
2019-06-15T10:11:57.940Z,2.20
2019-06-15T10:14:27.792Z,2.67
2019-06-15T10:16:57.686Z,2.77
2019-06-15T10:19:27.276Z,2.45
2019-06-15T10:21:57.238Z,2.70
2019-06-15T10:24:27.847Z,1.87
2019-06-15T10:26:57.565Z,2.20
2019-06-15T10:29:41.291Z,2.00
2019-06-15T10:31:59.052Z,2.77
2019-06-15T10:34:28.910Z,2.58
2019-06-15T10:36:58.659Z,2.92
2019-06-15T10:39:28.337Z,2.80
2019-06-15T10:41:57.988Z,4.40
2019-06-15T10:44:28.032Z,3.10
2019-06-15T10:46:58.001Z,3.62
2019-06-15T10:49:28.090Z,3.47
2019-06-15T10:51:57.813Z,3.62
2019-06-15T10:54:27.670Z,3.55
2019-06-15T10:56:58.159Z,3.67
2019-06-15T10:59:30.102Z,4.55
2019-06-15T11:01:59.862Z,5.08
2019-06-15T11:04:29.618Z,4.95
2019-06-15T11:07:00.278Z,5.83
2019-06-15T11:09:30.115Z,6.47
2019-06-15T11:11:59.919Z,7.00
2019-06-15T11:14:29.662Z,6.80
2019-06-15T11:17:00.670Z,6.20
2019-06-15T11:19:30.304Z,5.97
2019-06-15T11:21:59.995Z,7.03
2019-06-15T11:24:29.735Z,6.87
2019-06-15T11:26:59.369Z,7.53
2019-06-15T11:29:29.101Z,7.90
2019-06-15T11:31:58.829Z,6.97
2019-06-15T11:34:28.501Z,6.90
2019-06-15T11:36:58.255Z,5.53
2019-06-15T11:42:03.271Z,5.15
2019-06-15T11:44:32.988Z,4.03
2019-06-15T11:47:02.732Z,4.05
2019-06-15T11:49:32.510Z,6.62
2019-06-15T11:52:03.507Z,5.30
2019-06-15T11:54:33.307Z,6.03
2019-06-15T11:57:03.102Z,5.83
2019-06-15T11:59:33.908Z,4.53
2019-06-15T12:02:03.617Z,4.40
2019-06-15T12:04:33.627Z,3.83
2019-06-15T12:07:03.876Z,3.40
2019-06-15T12:09:33.764Z,3.23
2019-06-15T12:12:03.488Z,2.90
2019-06-15T12:14:33.302Z,2.30
2019-06-15T12:17:03.025Z,2.10
2019-06-15T12:19:33.018Z,2.20
2019-06-15T12:22:02.829Z,2.20
2019-06-15T12:24:32.686Z,2.50
2019-06-15T12:27:02.334Z,2.40
2019-06-15T12:29:33.179Z,1.98
2019-06-15T12:32:02.900Z,1.33
2019-06-15T12:34:32.694Z,1.22
2019-06-15T12:37:03.185Z,1.10
2019-06-15T12:39:32.988Z,1.30
2019-06-15T12:42:02.822Z,1.20
2019-06-15T12:44:32.592Z,1.07
2019-06-15T12:47:02.366Z,1.32
2019-06-15T12:49:32.382Z,1.50
2019-06-15T12:52:02.647Z,1.53
2019-06-15T12:54:32.399Z,1.60
2019-06-15T12:57:02.221Z,1.73
2019-06-15T12:59:32.331Z,1.82
2019-06-15T13:02:02.048Z,1.90
2019-06-15T13:04:31.954Z,2.02
2019-06-15T13:07:01.813Z,2.05
2019-06-15T13:09:33.554Z,1.92
2019-06-15T13:12:03.339Z,1.98
2019-06-15T13:14:33.262Z,2.50
2019-06-15T13:17:03.117Z,2.05
2019-06-15T13:19:33.064Z,1.77
2019-06-15T13:22:06.204Z,2.30
2019-06-15T13:24:34.425Z,2.40
2019-06-15T13:27:04.313Z,2.10
2019-06-15T13:29:34.247Z,2.22
2019-06-15T13:32:04.202Z,2.40
2019-06-15T13:34:34.014Z,2.30
2019-06-15T13:37:04.121Z,2.60
2019-06-15T13:39:33.976Z,2.30
2019-06-15T13:42:03.734Z,1.90
2019-06-15T13:44:33.509Z,1.65
2019-06-15T13:47:03.520Z,2.60
2019-06-15T13:49:33.309Z,2.17
2019-06-15T13:52:03.161Z,2.10
2019-06-15T13:54:34.475Z,2.35
2019-06-15T13:57:04.298Z,2.77
2019-06-15T13:59:34.555Z,2.10
2019-06-15T14:02:05.485Z,2.57
2019-06-15T14:04:35.267Z,1.98
2019-06-15T14:07:05.529Z,2.30
2019-06-15T14:09:35.243Z,1.95
2019-06-15T14:12:07.012Z,2.27
2019-06-15T14:14:37.381Z,2.05
2019-06-15T14:17:08.903Z,1.90
2019-06-15T14:19:38.822Z,2.00
2019-06-15T14:22:08.798Z,2.00
2019-06-15T14:24:38.615Z,2.20
2019-06-15T14:27:08.511Z,2.20
2019-06-15T14:29:39.131Z,2.40
2019-06-15T14:32:08.998Z,2.92
2019-06-15T14:34:39.873Z,2.22
2019-06-15T14:37:11.234Z,2.30
2019-06-15T14:39:41.092Z,2.22
2019-06-15T14:42:11.324Z,2.20
2019-06-15T14:44:41.113Z,2.15
2019-06-15T14:47:11.958Z,2.55
2019-06-15T14:49:41.792Z,2.30
2019-06-15T14:52:11.907Z,2.25
2019-06-15T14:54:41.664Z,2.40
2019-06-15T14:57:11.352Z,2.37
2019-06-15T14:59:55.382Z,2.67
2019-06-15T15:02:14.257Z,2.42
2019-06-15T15:04:44.270Z,2.35
2019-06-15T15:07:16.930Z,2.42
2019-06-15T15:09:49.925Z,2.58
2019-06-15T15:12:20.870Z,2.50
2019-06-15T15:14:50.648Z,2.10
2019-06-15T15:17:20.799Z,2.40
2019-06-15T15:19:50.785Z,2.10
2019-06-15T15:22:22.571Z,2.77
2019-06-15T15:24:52.234Z,2.27
2019-06-15T15:27:22.285Z,2.10
2019-06-15T15:29:52.076Z,2.57
2019-06-15T15:32:27.109Z,2.75
2019-06-15T15:34:56.014Z,2.30
2019-06-15T15:37:27.090Z,3.02
2019-06-15T15:39:57.034Z,2.00
2019-06-15T15:42:27.162Z,2.27
2019-06-15T15:44:57.111Z,2.30
2019-06-15T15:47:27.712Z,3.07
2019-06-15T15:49:57.767Z,2.35
2019-06-15T15:52:29.126Z,2.40
2019-06-15T15:54:58.822Z,12.28
2019-06-15T15:57:29.282Z,54.20
2019-06-15T15:59:59.049Z,59.33
2019-06-15T16:02:44.547Z,4.72
2019-06-15T16:05:00.106Z,5.00
2019-06-15T16:07:30.046Z,2.63
2019-06-15T16:09:59.819Z,22.05
2019-06-15T16:12:29.659Z,25.50
2019-06-15T16:14:59.408Z,27.70
2019-06-15T16:17:29.117Z,3.80
2019-06-15T16:19:58.930Z,7.97
2019-06-15T16:22:28.791Z,3.70
2019-06-15T16:24:58.540Z,3.22
2019-06-15T16:27:29.189Z,3.72
2019-06-15T16:29:58.959Z,5.20
2019-06-15T16:32:28.985Z,5.65
2019-06-15T16:34:59.042Z,4.17
2019-06-15T16:37:28.893Z,3.98
2019-06-15T16:39:58.956Z,4.97
2019-06-15T16:42:28.713Z,4.10
2019-06-15T16:44:58.444Z,4.05
2019-06-15T16:47:28.256Z,4.10
2019-06-15T16:49:57.888Z,3.33
2019-06-15T16:52:27.647Z,4.40
2019-06-15T16:54:57.401Z,5.50
2019-06-15T16:57:28.159Z,3.20
2019-06-15T16:59:57.969Z,3.12
2019-06-15T17:02:27.695Z,2.60
2019-06-15T17:04:57.374Z,3.03
2019-06-15T17:07:27.141Z,3.02
2019-06-15T17:09:57.008Z,4.00
2019-06-15T17:12:26.668Z,3.00
2019-06-15T17:14:56.356Z,3.47
2019-06-15T17:17:26.710Z,2.80
2019-06-15T17:19:57.005Z,4.22
2019-06-15T17:22:27.793Z,3.53
2019-06-15T17:24:57.462Z,3.12
2019-06-15T17:27:27.542Z,3.30
2019-06-15T17:29:57.981Z,3.20
2019-06-15T17:32:27.644Z,3.00
2019-06-15T17:34:57.310Z,3.33
2019-06-15T17:37:27.069Z,3.20
2019-06-15T17:39:56.733Z,2.97
2019-06-15T17:42:26.526Z,3.10
2019-06-15T17:44:57.201Z,3.30
2019-06-15T17:47:27.027Z,3.80
2019-06-15T17:49:56.827Z,3.10
2019-06-15T17:52:27.353Z,3.55
2019-06-15T17:54:57.176Z,3.25
2019-06-15T17:57:27.445Z,3.10
2019-06-15T17:59:57.438Z,3.40
2019-06-15T18:02:27.328Z,3.12
2019-06-15T18:04:57.019Z,3.15
2019-06-15T18:07:26.704Z,3.47
2019-06-15T18:09:56.428Z,3.53
2019-06-15T18:12:27.581Z,3.80
2019-06-15T18:14:58.375Z,3.44
2019-06-15T18:17:28.036Z,3.35
2019-06-15T18:19:57.888Z,3.52
2019-06-15T18:22:27.589Z,3.17
2019-06-15T18:24:57.366Z,3.42
2019-06-15T18:27:27.922Z,3.37
2019-06-15T18:29:57.647Z,3.50
2019-06-15T18:32:27.951Z,3.60
2019-06-15T18:34:57.629Z,3.60
2019-06-15T18:37:27.448Z,3.40
2019-06-15T18:39:57.157Z,3.43
2019-06-15T18:42:27.350Z,3.50
2019-06-15T18:44:58.884Z,3.20
2019-06-15T18:47:28.714Z,3.50
2019-06-15T18:49:58.507Z,3.12
2019-06-15T18:52:28.254Z,3.37
2019-06-15T18:54:57.956Z,3.55
2019-06-15T18:57:27.632Z,3.33
2019-06-15T18:59:57.426Z,3.70
2019-06-15T19:02:27.195Z,3.10
2019-06-15T19:04:56.867Z,3.60
2019-06-15T19:07:27.001Z,3.70
2019-06-15T19:09:56.773Z,3.90
2019-06-15T19:12:26.517Z,4.35
2019-06-15T19:14:56.272Z,3.77
2019-06-15T19:17:25.993Z,4.50
2019-06-15T19:19:57.242Z,4.65
2019-06-15T19:22:27.184Z,4.25
2019-06-15T19:24:57.369Z,4.67
2019-06-15T19:27:27.103Z,4.47
2019-06-15T19:29:56.752Z,4.12
2019-06-15T19:32:27.283Z,4.32
2019-06-15T19:34:57.081Z,4.87
2019-06-15T19:37:26.946Z,4.73
2019-06-15T19:39:56.648Z,4.43
2019-06-15T19:42:26.355Z,4.78
2019-06-15T19:44:56.271Z,3.92
2019-06-15T19:47:26.632Z,4.42
2019-06-15T19:49:56.965Z,4.70
2019-06-15T19:52:26.704Z,4.72
2019-06-15T19:54:56.492Z,4.67
2019-06-15T19:57:27.126Z,4.92
2019-06-15T19:59:58.242Z,4.92
2019-06-15T20:02:28.921Z,4.78
2019-06-15T20:05:03.665Z,5.58
2019-06-15T20:07:31.174Z,5.55
2019-06-15T20:10:00.866Z,5.73
2019-06-15T20:12:31.802Z,5.90
2019-06-15T20:15:01.668Z,4.97
2019-06-15T20:17:31.347Z,5.28
2019-06-15T20:20:01.355Z,4.67
2019-06-15T20:22:32.099Z,5.33
2019-06-15T20:25:01.951Z,5.80
2019-06-15T20:27:31.574Z,6.08
2019-06-15T20:30:01.305Z,5.27
2019-06-15T20:32:31.135Z,4.90
2019-06-15T20:35:16.233Z,5.35
2019-06-15T20:37:32.710Z,5.20
2019-06-15T20:40:02.482Z,4.95
2019-06-15T20:42:32.279Z,5.27
2019-06-15T20:45:02.358Z,4.70
2019-06-15T20:47:32.143Z,4.55
2019-06-15T20:50:02.112Z,5.08
2019-06-15T20:52:33.078Z,5.10
2019-06-15T20:55:06.454Z,5.44
2019-06-15T20:57:35.554Z,5.27
2019-06-15T21:00:06.519Z,4.62
2019-06-15T21:02:37.458Z,5.12
2019-06-15T21:05:08.133Z,4.93
2019-06-15T21:07:37.909Z,5.07
2019-06-15T21:10:08.252Z,5.83
2019-06-15T21:12:39.205Z,6.20
2019-06-15T21:15:10.876Z,5.58
2019-06-15T21:17:41.650Z,5.23
2019-06-15T21:20:11.458Z,5.72
2019-06-15T21:22:41.360Z,5.13
2019-06-15T21:25:12.247Z,5.30
2019-06-15T21:27:42.042Z,5.57
2019-06-15T21:30:12.271Z,5.20
2019-06-15T21:32:42.044Z,5.17
2019-06-15T21:35:13.003Z,4.40
2019-06-15T21:37:42.656Z,5.05
2019-06-15T21:40:15.284Z,5.33
2019-06-15T21:42:46.845Z,5.62
2019-06-15T21:45:17.668Z,6.20
2019-06-15T21:47:48.535Z,5.80
2019-06-15T21:50:18.284Z,5.23
2019-06-15T21:52:48.056Z,5.80
2019-06-15T21:55:17.817Z,5.90
2019-06-15T21:57:47.553Z,5.40
2019-06-15T22:00:21.167Z,5.97
2019-06-15T22:02:52.660Z,6.00
2019-06-15T22:05:22.651Z,5.83
2019-06-15T22:07:52.961Z,5.67
2019-06-15T22:10:23.433Z,6.40
2019-06-15T22:12:53.397Z,5.92
2019-06-15T22:15:23.236Z,6.30
2019-06-15T22:17:54.001Z,7.20
2019-06-15T22:20:26.212Z,6.00
2019-06-15T22:22:56.009Z,7.40
2019-06-15T22:25:26.521Z,6.53
2019-06-15T22:27:57.248Z,6.83
2019-06-15T22:30:27.705Z,6.35
2019-06-15T22:32:57.647Z,6.80
2019-06-15T22:35:27.787Z,6.93
2019-06-15T22:37:57.587Z,6.53
2019-06-15T22:40:28.041Z,6.93
2019-06-15T22:42:59.133Z,7.70
2019-06-15T22:45:30.469Z,7.40
2019-06-15T22:48:00.238Z,7.40
2019-06-15T22:50:31.201Z,8.70
2019-06-15T22:53:03.877Z,7.70
2019-06-15T22:55:32.608Z,7.93
2019-06-15T22:58:02.462Z,8.97
2019-06-15T23:00:34.015Z,9.33
2019-06-15T23:03:06.075Z,9.20
2019-06-15T23:05:35.470Z,8.50
2019-06-15T23:08:06.954Z,9.40
2019-06-15T23:10:36.909Z,8.27
2019-06-15T23:13:06.659Z,8.27
2019-06-15T23:15:37.177Z,8.15
2019-06-15T23:18:07.409Z,8.13
2019-06-15T23:20:37.204Z,8.13
2019-06-15T23:23:08.001Z,8.20
2019-06-15T23:25:37.755Z,7.70
2019-06-15T23:28:07.487Z,8.00
2019-06-15T23:30:37.231Z,8.45
2019-06-15T23:33:06.876Z,8.63
2019-06-15T23:35:42.207Z,8.07
2019-06-15T23:38:11.985Z,8.50
2019-06-15T23:40:41.708Z,8.00
2019-06-15T23:43:11.432Z,7.87
2019-06-15T23:45:41.054Z,7.63
2019-06-15T23:48:10.962Z,8.30
2019-06-15T23:50:40.615Z,7.70
2019-06-15T23:53:10.277Z,7.50
2019-06-15T23:55:40.064Z,7.83
2019-06-15T23:58:09.947Z,7.57
